TimeEST,TemperatureF,Dew PointF,Humidity,Sea Level PressureIn,VisibilityMPH,Wind Direction,Wind SpeedMPH,Gust SpeedMPH,PrecipitationIn,Events,Conditions,WindDirDegrees,DateUTC
12:53 AM,36.0,19.0,50,30.22,10.0,NW,8.1,-,N/A,,Clear,320,2013-02-20 05:53:00
1:53 AM,33.1,21.9,64,30.23,10.0,Calm,Calm,-,N/A,,Clear,0,2013-02-20 06:53:00
2:53 AM,32.0,21.9,66,30.23,10.0,Calm,Calm,-,N/A,,Clear,0,2013-02-20 07:53:00
3:53 AM,30.0,23.0,75,30.21,10.0,Calm,Calm,-,N/A,,Clear,0,2013-02-20 08:53:00
4:53 AM,28.9,24.1,82,30.21,10.0,Calm,Calm,-,N/A,,Clear,0,2013-02-20 09:53:00
5:53 AM,28.0,24.1,85,30.22,10.0,Calm,Calm,-,N/A,,Clear,0,2013-02-20 10:53:00
6:53 AM,30.0,19.9,66,30.24,10.0,NW,8.1,-,N/A,,Clear,320,2013-02-20 11:53:00
7:53 AM,30.9,19.9,64,30.26,10.0,North,5.8,-,N/A,,Scattered Clouds,350,2013-02-20 12:53:00
8:53 AM,33.1,18.0,54,30.27,10.0,North,11.5,-,N/A,,Mostly Cloudy,360,2013-02-20 13:53:00
9:53 AM,36.0,16.0,44,30.29,10.0,North,8.1,-,N/A,,Mostly Cloudy,350,2013-02-20 14:53:00
10:53 AM,37.4,15.8,41,30.26,10.0,North,9.2,-,N/A,,Mostly Cloudy,10,2013-02-20 15:53:00
11:53 AM,39.0,14.0,36,30.28,10.0,North,4.6,-,N/A,,Mostly Cloudy,350,2013-02-20 16:53:00
12:53 PM,41.0,15.1,35,30.25,10.0,NE,3.5,-,N/A,,Overcast,50,2013-02-20 17:53:00
1:53 PM,42.1,14.0,32,30.24,10.0,NNW,4.6,-,N/A,,Overcast,330,2013-02-20 18:53:00
2:53 PM,43.0,12.0,28,30.24,10.0,North,5.8,-,N/A,,Overcast,10,2013-02-20 19:53:00
3:53 PM,43.0,10.9,27,30.23,10.0,NNE,6.9,-,N/A,,Overcast,30,2013-02-20 20:53:00
4:53 PM,42.1,10.9,28,30.25,10.0,NNE,6.9,-,N/A,,Overcast,20,2013-02-20 21:53:00
5:53 PM,41.0,12.0,31,30.22,10.0,NNE,6.9,-,N/A,,Mostly Cloudy,30,2013-02-20 22:53:00
6:53 PM,39.0,12.9,34,30.22,10.0,NNE,5.8,-,N/A,,Scattered Clouds,20,2013-02-20 23:53:00
7:53 PM,37.4,15.8,41,30.19,10.0,North,8.1,-,N/A,,Mostly Cloudy,10,2013-02-21 00:53:00
8:53 PM,37.0,16.0,42,30.20,10.0,NNE,10.4,-,N/A,,Mostly Cloudy,20,2013-02-21 01:53:00
9:53 PM,36.0,18.0,48,30.22,10.0,North,4.6,-,N/A,,Mostly Cloudy,350,2013-02-21 02:53:00
10:53 PM,35.6,17.6,48,30.22,10.0,North,4.6,-,N/A,,Partly Cloudy,10,2013-02-21 03:53:00
11:53 PM,34.0,17.1,50,30.20,10.0,North,6.9,-,N/A,,Partly Cloudy,10,2013-02-21 04:53:00